Time;durP1;ratioP1;P1;durP2;ratioP2;P2;SDS_P1;SDS_P2;PMS_P1;PMS_P2;Temp;Humidity;BMP_temperature;BMP_pressure;BME280_temperature;BME280_humidity;BME280_pressure;Samples;Min_cycle;Max_cycle;Signal;HPM_P1;HPM_P2
2023/04/02 00:01:36;;;;;;;19.33;15.10;;;;;;;9.17;94.86;100957.38;5051556;28;20505;-43
2023/04/02 00:04:07;;;;;;;19.27;15.13;;;;;;;9.14;94.16;100961.56;5033698;28;20478;-43
2023/04/02 00:06:43;;;;;;;19.65;15.32;;;;;;;9.08;93.21;100954.44;5051520;28;20379;-44
2023/04/02 00:09:11;;;;;;;19.73;15.23;;;;;;;9.18;93.50;100979.16;5051812;28;20029;-43
2023/04/02 00:11:47;;;;;;;19.67;15.30;;;;;;;9.18;93.24;100976.41;5051660;28;20029;-44
2023/04/02 00:14:23;;;;;;;20.55;15.27;;;;;;;9.09;93.74;100966.31;5051804;28;20203;-46
2023/04/02 00:16:50;;;;;;;19.88;15.25;;;;;;;9.12;92.71;100988.63;5051649;28;20048;-44
2023/04/02 00:19:29;;;;;;;20.20;15.70;;;;;;;9.10;93.50;100990.84;5033598;28;20029;-47
2023/04/02 00:21:56;;;;;;;19.15;15.35;;;;;;;9.01;92.68;101001.72;5051778;28;20021;-45
2023/04/02 00:24:22;;;;;;;20.52;15.82;;;;;;;8.97;92.49;100994.31;5051411;28;20049;-46
2023/04/02 00:26:52;;;;;;;20.20;15.85;;;;;;;8.96;92.54;101010.03;5051522;28;20028;-46
2023/04/02 00:29:18;;;;;;;20.35;15.50;;;;;;;8.95;92.91;101010.34;5051920;28;20120;-45
2023/04/02 00:31:47;;;;;;;20.58;15.90;;;;;;;8.95;92.55;101019.44;5051425;28;20184;-44
2023/04/02 00:34:20;;;;;;;19.90;14.93;;;;;;;9.03;92.23;101026.25;5051592;28;20024;-45
2023/04/02 00:36:46;;;;;;;19.30;15.30;;;;;;;9.02;92.12;101024.59;5017095;28;20025;-47
2023/04/02 00:39:22;;;;;;;20.10;15.68;;;;;;;9.02;93.53;101024.59;5051358;28;20497;-48
2023/04/02 00:41:57;;;;;;;19.70;14.95;;;;;;;9.01;92.89;101022.97;5051484;28;20040;-45
2023/04/02 00:44:28;;;;;;;20.40;16.05;;;;;;;9.07;92.74;101024.53;5051620;28;20029;-44
2023/04/02 00:46:54;;;;;;;20.52;15.73;;;;;;;9.09;93.12;101038.88;5051493;28;20079;-44
2023/04/02 00:49:25;;;;;;;20.15;15.63;;;;;;;9.02;91.70;101036.47;5051367;28;20033;-44
2023/04/02 00:51:58;;;;;;;20.73;16.05;;;;;;;9.02;92.47;101035.66;5055356;28;20425;-44
2023/04/02 00:54:29;;;;;;;19.42;15.10;;;;;;;8.99;91.70;101045.34;5055180;28;20029;-44
2023/04/02 00:56:56;;;;;;;19.80;15.32;;;;;;;8.91;91.42;101040.44;5055196;28;20036;-46
2023/04/02 00:59:29;;;;;;;20.20;15.60;;;;;;;8.99;92.57;101045.34;5055313;28;20017;-45
2023/04/02 01:02:17;;;;;;;20.17;15.38;;;;;;;9.01;91.81;101067.97;5055185;28;20152;-45
2023/04/02 01:05:23;;;;;;;20.85;14.70;;;;;;;9.00;91.36;101066.31;5055010;28;20036;-46
2023/04/02 01:08:03;;;;;;;19.80;14.50;;;;;;;9.03;91.99;101064.91;5021093;28;20037;-45
2023/04/02 01:10:31;;;;;;;19.20;14.30;;;;;;;8.96;89.54;101075.44;5054889;28;20029;-47
2023/04/02 01:13:34;;;;;;;19.85;14.93;;;;;;;8.95;91.98;101076.56;5036962;28;20025;-45
2023/04/02 01:16:12;;;;;;;21.13;15.52;;;;;;;8.81;90.77;101084.69;5054840;28;20040;-45
2023/04/02 01:18:52;;;;;;;19.60;15.30;;;;;;;8.78;92.97;101079.72;5054642;28;20100;-44
2023/04/02 01:21:52;;;;;;;20.60;16.17;;;;;;;8.77;91.65;101094.63;5054687;28;20053;-45
2023/04/02 01:24:19;;;;;;;20.85;16.02;;;;;;;8.72;91.84;101103.78;5054585;28;20041;-45
2023/04/02 01:26:52;;;;;;;20.75;16.10;;;;;;;8.67;91.88;101110.16;5054586;28;20543;-44
2023/04/02 01:29:25;;;;;;;21.10;16.48;;;;;;;8.66;92.32;101091.94;5054628;28;20481;-45
2023/04/02 01:31:52;;;;;;;20.23;16.95;;;;;;;8.63;90.32;101108.25;5054492;28;20025;-47
2023/04/02 01:34:21;;;;;;;21.05;16.52;;;;;;;8.56;91.26;101097.53;5054526;28;20059;-47
2023/04/02 01:37:02;;;;;;;20.83;16.08;;;;;;;8.57;89.86;101119.31;5054500;28;20040;-45
2023/04/02 01:39:46;;;;;;;20.38;15.50;;;;;;;8.60;90.80;101120.69;5036471;28;20406;-44
2023/04/02 01:42:11;;;;;;;;;;;;;;;8.70;90.57;101117.84;5054825;28;20112;-47
2023/04/02 01:44:41;;;;;;;21.80;15.75;;;;;;;8.58;89.82;101132.00;5054067;28;19999;-46
2023/04/02 01:47:12;;;;;;;19.65;14.27;;;;;;;8.55;90.43;101135.31;5054250;28;20029;-44
2023/04/02 01:49:39;;;;;;;19.70;13.90;;;;;;;8.53;89.90;101140.31;5054307;28;20063;-47
2023/04/02 01:52:05;;;;;;;19.77;13.93;;;;;;;8.41;89.05;101142.53;5054009;28;20033;-47
2023/04/02 01:54:31;;;;;;;19.42;14.00;;;;;;;8.37;89.85;101144.22;5054227;28;20048;-46
2023/04/02 01:56:56;;;;;;;19.65;13.80;;;;;;;8.41;90.67;101154.41;5035970;28;20390;-44
2023/04/02 01:59:23;;;;;;;19.48;13.63;;;;;;;8.39;89.13;101155.81;5053967;28;20037;-46
2023/04/02 02:02:03;;;;;;;19.75;13.70;;;;;;;8.41;90.98;101159.06;5053798;28;20024;-46
2023/04/02 02:04:29;;;;;;;19.63;13.60;;;;;;;8.33;89.35;101171.53;5053887;28;20037;-45
2023/04/02 02:06:57;;;;;;;19.52;13.40;;;;;;;8.30;89.01;101176.81;5053913;28;20124;-47
2023/04/02 02:09:28;;;;;;;19.83;13.32;;;;;;;8.29;89.14;101173.19;5053839;28;20056;-45
2023/04/02 02:11:55;;;;;;;18.75;12.95;;;;;;;8.41;88.75;101184.72;5035955;28;20029;-45
2023/04/02 02:14:22;;;;;;;18.50;12.63;;;;;;;8.41;88.11;101184.72;5053682;28;20119;-45
2023/04/02 02:16:48;;;;;;;19.00;13.10;;;;;;;8.42;88.92;101189.13;5035652;28;20394;-45
2023/04/02 02:19:28;;;;;;;18.30;12.88;;;;;;;8.44;87.93;101197.13;5053490;28;20094;-43
2023/04/02 02:22:02;;;;;;;18.08;12.45;;;;;;;8.39;88.72;101197.16;5053644;28;20248;-47
2023/04/02 02:24:31;;;;;;;18.63;12.65;;;;;;;8.44;90.65;101202.63;5053714;28;20045;-44
2023/04/02 02:27:05;;;;;;;18.50;12.77;;;;;;;8.46;88.88;101211.44;5053417;28;20021;-45
2023/04/02 02:29:35;;;;;;;18.42;12.27;;;;;;;8.42;88.12;101213.13;5053654;28;20052;-48
2023/04/02 02:32:03;;;;;;;18.60;12.25;;;;;;;8.40;87.24;101220.88;5053298;28;20043;-44
2023/04/02 02:34:37;;;;;;;18.65;12.43;;;;;;;8.36;86.83;101211.50;5053374;28;20025;-47
2023/04/02 02:37:13;;;;;;;18.63;13.10;;;;;;;8.36;87.15;101219.75;5053245;28;20043;-47
2023/04/02 02:39:42;;;;;;;18.27;12.90;;;;;;;8.19;87.65;101209.06;5053276;28;20028;-45
2023/04/02 02:42:18;;;;;;;19.52;13.10;;;;;;;8.38;88.46;101237.66;5053266;28;20028;-47
2023/04/02 02:44:48;;;;;;;19.75;13.57;;;;;;;8.45;88.70;101240.13;5053166;28;20056;-46
2023/04/02 02:47:17;;;;;;;20.08;14.15;;;;;;;8.39;87.92;101253.09;5053144;28;20025;-48
2023/04/02 02:49:48;;;;;;;19.50;13.70;;;;;;;8.38;89.15;101261.66;5035165;28;20033;-45
2023/04/02 02:52:20;;;;;;;20.10;14.15;;;;;;;8.28;88.02;101254.25;5053148;28;20025;-44
2023/04/02 02:54:52;;;;;;;19.63;14.30;;;;;;;8.30;87.57;101265.00;5052913;28;20028;-45
2023/04/02 02:57:23;;;;;;;20.27;14.07;;;;;;;8.22;87.49;101266.41;5052837;28;20136;-46
2023/04/02 02:59:50;;;;;;;20.17;14.80;;;;;;;8.07;87.01;101272.78;5052798;28;20091;-47
2023/04/02 03:02:16;;;;;;;19.95;14.52;;;;;;;8.16;88.61;101278.56;5052953;28;20051;-48
2023/04/02 03:04:46;;;;;;;20.30;14.48;;;;;;;8.09;88.00;101281.59;5052660;28;20064;-48
2023/04/02 03:07:15;;;;;;;19.55;14.48;;;;;;;8.09;87.58;101287.91;5052607;28;20577;-44
2023/04/02 03:09:53;;;;;;;19.55;14.45;;;;;;;8.05;86.95;101286.84;5052684;28;20067;-44
2023/04/02 03:12:41;;;;;;;20.17;14.63;;;;;;;8.02;87.29;101283.81;5052162;28;20029;-43
2023/04/02 03:15:09;;;;;;;20.48;14.50;;;;;;;7.87;88.13;101290.16;5052531;28;20078;-44
2023/04/02 03:17:47;;;;;;;20.48;14.23;;;;;;;7.91;90.30;101289.34;5052459;28;20064;-47
2023/04/02 03:20:24;;;;;;;20.63;14.40;;;;;;;8.02;90.05;101308.63;5052484;28;20075;-43
2023/04/02 03:23:10;;;;;;;19.42;13.68;;;;;;;7.98;88.74;101300.06;5052265;28;20517;-44
2023/04/02 03:25:44;;;;;;;20.65;14.38;;;;;;;7.92;87.64;101306.69;5052519;28;20025;-47
2023/04/02 03:28:18;;;;;;;20.33;14.05;;;;;;;7.86;87.75;101308.59;5052424;28;20033;-46
2023/04/02 03:30:46;;;;;;;;;;;;;;;8.05;87.82;101328.16;5052693;28;20086;-45
2023/04/02 03:33:20;;;;;;;20.00;14.13;;;;;;;7.92;87.92;101331.47;5052275;28;19920;-44
2023/04/02 03:35:56;;;;;;;20.70;14.52;;;;;;;7.89;88.18;101340.28;5052502;28;20025;-46
2023/04/02 03:38:39;;;;;;;20.00;14.25;;;;;;;7.81;87.84;101341.69;5052144;28;20040;-44
2023/04/02 03:41:28;;;;;;;22.53;14.10;;;;;;;7.88;88.11;101346.91;5052166;28;20032;-44
2023/04/02 03:44:02;;;;;;;19.55;13.90;;;;;;;7.87;87.03;101359.03;5051895;28;20029;-43
2023/04/02 03:46:35;;;;;;;20.05;14.27;;;;;;;7.63;85.92;101332.03;5034125;28;20028;-44
2023/04/02 03:49:13;;;;;;;19.58;13.70;;;;;;;7.83;88.69;101372.53;5052081;28;20097;-44
2023/04/02 03:51:51;;;;;;;20.20;13.82;;;;;;;7.83;87.86;101386.31;5051970;28;20486;-44
2023/04/02 03:54:17;;;;;;;19.65;14.13;;;;;;;7.86;87.96;101382.97;5051928;28;20486;-43
2023/04/02 03:56:46;;;;;;;20.48;14.43;;;;;;;7.84;87.03;101395.38;5051883;28;20064;-44
2023/04/02 03:59:17;;;;;;;20.45;14.27;;;;;;;7.93;87.38;101393.75;5051872;28;20021;-44
2023/04/02 04:01:58;;;;;;;19.52;14.13;;;;;;;7.92;86.70;101392.94;5051919;28;20032;-46
2023/04/02 04:04:27;;;;;;;20.88;14.77;;;;;;;7.88;85.80;101396.50;5051843;28;20036;-44
2023/04/02 04:06:55;;;;;;;20.45;14.63;;;;;;;7.73;85.64;101398.13;5051783;28;20083;-44
2023/04/02 04:09:35;;;;;;;20.45;15.05;;;;;;;7.83;87.79;101424.03;5051803;28;20108;-44
2023/04/02 04:12:25;;;;;;;19.75;14.50;;;;;;;7.85;86.26;101422.66;5051869;28;20512;-45
2023/04/02 04:15:01;;;;;;;20.20;14.18;;;;;;;7.75;85.54;101425.38;5037630;28;20056;-46
2023/04/02 04:17:53;;;;;;;19.98;13.70;;;;;;;7.77;86.79;101428.69;5051627;28;20498;-45
2023/04/02 04:20:38;;;;;;;20.20;13.90;;;;;;;7.72;85.85;101440.53;5051719;28;20028;-44
2023/04/02 04:23:10;;;;;;;19.08;13.27;;;;;;;7.65;84.39;101440.78;5051511;28;20151;-44
2023/04/02 04:25:35;;;;;;;19.75;13.35;;;;;;;7.58;85.23;101448.50;5053952;28;20036;-45
2023/04/02 04:28:20;;;;;;;19.38;13.35;;;;;;;7.63;86.32;101462.28;5055751;28;20029;-44
2023/04/02 04:31:00;;;;;;;19.10;13.43;;;;;;;7.62;86.48;101466.13;5037777;28;20033;-47
2023/04/02 04:33:38;;;;;;;19.85;13.27;;;;;;;7.54;84.56;101458.41;5055606;28;20017;-44
2023/04/02 04:36:05;;;;;;;18.65;13.02;;;;;;;7.57;85.59;101482.63;5055597;28;20090;-44
2023/04/02 04:38:37;;;;;;;20.90;13.40;;;;;;;7.59;85.55;101485.13;5037608;28;20021;-44
2023/04/02 04:41:15;;;;;;;19.58;13.00;;;;;;;7.52;85.65;101499.13;5055657;28;20025;-44
2023/04/02 04:43:59;;;;;;;19.95;13.38;;;;;;;7.57;85.65;101501.91;5055537;28;20021;-44
2023/04/02 04:46:31;;;;;;;19.13;13.65;;;;;;;7.53;86.55;101506.31;5055426;28;20021;-44
2023/04/02 04:49:08;;;;;;;19.77;13.50;;;;;;;7.49;84.24;101510.69;5055426;28;20083;-43
2023/04/02 04:51:46;;;;;;;20.33;13.73;;;;;;;7.52;86.72;101517.56;5055393;28;20491;-46
2023/04/02 04:54:13;;;;;;;18.98;13.32;;;;;;;7.40;85.09;101504.03;5037361;28;20025;-44
2023/04/02 04:56:43;;;;;;;20.00;14.05;;;;;;;7.38;84.45;101526.34;5055333;28;20033;-44
2023/04/02 04:59:19;;;;;;;22.35;14.82;;;;;;;7.41;87.50;101520.31;5037279;28;20047;-44
2023/04/02 05:01:52;;;;;;;19.70;14.07;;;;;;;7.44;85.52;101532.69;5055140;28;20020;-44
2023/04/02 05:04:26;;;;;;;21.00;14.18;;;;;;;7.41;84.96;101535.97;5055144;28;20433;-44
2023/04/02 05:07:15;;;;;;;20.88;14.70;;;;;;;7.42;86.46;101537.63;5055089;28;20071;-46
2023/04/02 05:10:06;;;;;;;19.35;13.82;;;;;;;7.59;87.09;101548.47;5055004;28;20377;-45
2023/04/02 05:12:41;;;;;;;20.40;14.05;;;;;;;7.42;82.45;101535.69;5055047;28;20029;-44
2023/04/02 05:15:14;;;;;;;20.13;14.13;;;;;;;7.41;83.38;101550.59;5055118;28;20057;-45
2023/04/02 05:17:54;;;;;;;20.13;14.55;;;;;;;7.41;83.42;101567.09;5055065;28;20029;-44
2023/04/02 05:20:28;;;;;;;20.45;14.23;;;;;;;7.33;82.90;101551.91;5055059;28;20025;-46
2023/04/02 05:23:01;;;;;;;19.60;14.13;;;;;;;7.47;83.58;101567.94;5054655;28;20112;-44
2023/04/02 05:25:28;;;;;;;21.27;14.07;;;;;;;7.41;82.74;101563.50;5054983;28;20021;-45
2023/04/02 05:28:02;;;;;;;20.70;14.05;;;;;;;7.48;84.77;101580.59;5054661;28;20076;-47
2023/04/02 05:30:27;;;;;;;;;;;;;;;7.55;83.99;101575.72;5055339;28;20075;-44
2023/04/02 05:33:01;;;;;;;19.40;13.73;;;;;;;7.45;82.96;101584.72;5055063;28;19912;-43
2023/04/02 05:35:41;;;;;;;19.15;13.65;;;;;;;7.38;82.58;101584.16;5054323;28;20041;-43
2023/04/02 05:38:06;;;;;;;20.02;14.20;;;;;;;7.42;84.04;101590.75;5054532;28;20039;-44
2023/04/02 05:40:41;;;;;;;21.58;14.60;;;;;;;7.42;83.75;101584.44;5054524;28;20025;-44
2023/04/02 05:43:15;;;;;;;18.65;13.57;;;;;;;7.41;83.17;101596.53;5054661;28;20116;-44
2023/04/02 05:45:44;;;;;;;20.63;14.85;;;;;;;7.28;82.26;101603.34;5054495;28;20052;-45
2023/04/02 05:48:24;;;;;;;19.52;14.32;;;;;;;7.18;82.51;101609.59;5054244;28;20048;-47
2023/04/02 05:50:53;;;;;;;21.17;15.38;;;;;;;7.19;82.57;101608.50;5054328;28;20087;-45
2023/04/02 05:53:36;;;;;;;20.67;15.10;;;;;;;7.18;81.98;101617.84;5054175;28;20424;-46
2023/04/02 05:56:11;;;;;;;22.52;15.02;;;;;;;7.16;83.07;101620.06;5036329;28;20037;-42
2023/04/02 05:58:46;;;;;;;21.73;14.77;;;;;;;7.19;80.80;101627.75;5053889;28;20056;-43
2023/04/02 06:01:19;;;;;;;21.58;14.63;;;;;;;7.14;80.85;101641.50;5054211;28;20434;-44
2023/04/02 06:03:44;;;;;;;;;;;;;;;7.27;83.02;101652.06;5054574;28;20028;-43
2023/04/02 06:06:23;;;;;;;22.83;15.27;;;;;;;7.14;81.30;101650.56;5054277;28;19939;-44
2023/04/02 06:08:58;;;;;;;20.13;14.20;;;;;;;7.16;82.71;101659.41;5053912;28;20267;-43
2023/04/02 06:11:30;;;;;;;20.27;13.63;;;;;;;7.20;83.39;101676.22;5053777;28;20100;-44
2023/04/02 06:13:56;;;;;;;21.13;13.73;;;;;;;7.17;80.20;101687.75;5053858;28;20485;-44
2023/04/02 06:16:25;;;;;;;20.95;13.60;;;;;;;7.16;81.49;101675.91;5035876;28;20021;-44
2023/04/02 06:18:51;;;;;;;19.35;12.55;;;;;;;7.16;80.77;101697.09;5053567;28;20033;-44
2023/04/02 06:21:16;;;;;;;21.38;13.05;;;;;;;7.18;80.85;101704.00;5053672;28;20071;-45
2023/04/02 06:23:48;;;;;;;21.00;13.63;;;;;;;7.26;80.80;101701.84;5047875;28;20064;-47
2023/04/02 06:26:20;;;;;;;21.10;13.07;;;;;;;7.23;78.43;101714.22;5053639;28;20047;-43
2023/04/02 06:29:06;;;;;;;21.38;13.20;;;;;;;7.16;78.82;101714.44;5052017;28;20036;-42
2023/04/02 06:31:41;;;;;;;20.77;12.55;;;;;;;7.14;77.84;101713.03;5010475;28;20045;-44
2023/04/02 06:34:14;;;;;;;20.05;12.40;;;;;;;7.08;78.35;101725.09;5053243;28;20075;-47
2023/04/02 06:36:40;;;;;;;19.00;12.38;;;;;;;7.08;78.25;101725.09;5053584;28;20025;-43
2023/04/02 06:39:10;;;;;;;19.27;12.25;;;;;;;7.01;79.10;101722.56;5049952;28;20106;-45
2023/04/02 06:41:35;;;;;;;20.98;12.05;;;;;;;7.11;78.25;101732.81;5023979;28;20061;-45
2023/04/02 06:44:09;;;;;;;19.85;11.90;;;;;;;7.09;78.59;101735.00;5042034;28;20041;-43
2023/04/02 06:46:39;;;;;;;18.70;11.52;;;;;;;7.09;80.10;101737.75;5041648;28;20127;-43
2023/04/02 06:49:38;;;;;;;19.55;12.27;;;;;;;7.20;79.03;101755.19;5040763;28;20029;-43
2023/04/02 06:52:14;;;;;;;18.83;11.50;;;;;;;7.15;77.92;101756.00;5042246;28;20021;-43
2023/04/02 06:54:39;;;;;;;18.80;11.23;;;;;;;7.13;76.65;101756.22;5042741;28;20368;-44
2023/04/02 06:57:06;;;;;;;19.05;11.35;;;;;;;7.10;76.77;101773.28;5041283;28;20386;-43
2023/04/02 06:59:31;;;;;;;19.33;11.18;;;;;;;7.13;77.80;101780.19;5042027;28;20138;-43
2023/04/02 07:02:05;;;;;;;18.65;11.10;;;;;;;7.14;76.86;101784.59;5041307;28;20071;-43
2023/04/02 07:04:31;;;;;;;18.08;11.13;;;;;;;7.14;76.25;101798.34;5042186;28;20025;-43
2023/04/02 07:06:57;;;;;;;18.35;10.95;;;;;;;7.20;76.58;101799.25;5038465;28;20558;-43
2023/04/02 07:09:22;;;;;;;18.60;11.10;;;;;;;7.21;76.40;101807.22;5032935;28;20140;-43
2023/04/02 07:11:47;;;;;;;18.50;10.70;;;;;;;7.22;73.92;101819.91;5031414;28;20036;-43
2023/04/02 07:14:13;;;;;;;17.90;10.50;;;;;;;7.21;74.06;101828.44;5031178;28;20467;-44
2023/04/02 07:16:41;;;;;;;18.17;10.70;;;;;;;7.16;74.55;101826.44;5031211;28;20071;-43
2023/04/02 07:19:15;;;;;;;18.15;10.70;;;;;;;7.07;74.71;101834.31;5031118;28;20379;-43
2023/04/02 07:21:40;;;;;;;19.30;11.30;;;;;;;7.10;74.44;101846.72;5031114;28;20037;-44
2023/04/02 07:24:06;;;;;;;17.80;10.45;;;;;;;7.16;75.34;101842.97;5028279;28;20067;-43
2023/04/02 07:26:31;;;;;;;17.20;10.52;;;;;;;7.26;75.08;101847.72;5027737;28;20029;-45
2023/04/02 07:28:57;;;;;;;18.77;10.50;;;;;;;7.33;74.28;101856.59;5034082;28;20448;-44
2023/04/02 07:31:26;;;;;;;16.35;10.35;;;;;;;7.35;73.13;101859.94;5030870;28;20021;-43
2023/04/02 07:33:57;;;;;;;18.05;10.20;;;;;;;7.31;73.46;101845.06;5030800;28;20033;-44
2023/04/02 07:36:23;;;;;;;20.38;10.70;;;;;;;7.41;72.97;101861.66;5030843;28;20362;-43
2023/04/02 07:38:48;;;;;;;19.60;10.68;;;;;;;7.37;73.58;101860.53;5030726;28;20021;-43
2023/04/02 07:41:15;;;;;;;17.00;10.30;;;;;;;7.31;72.69;101867.06;5031052;28;20036;-44
2023/04/02 07:43:41;;;;;;;17.08;10.20;;;;;;;7.41;72.98;101878.19;5030714;28;20029;-44
2023/04/02 07:46:08;;;;;;;17.48;10.27;;;;;;;7.40;71.54;101875.69;5030819;28;20029;-44
2023/04/02 07:48:33;;;;;;;18.10;10.35;;;;;;;7.43;72.98;101878.75;5030774;28;20033;-45
2023/04/02 07:51:02;;;;;;;18.20;10.35;;;;;;;7.34;72.22;101891.31;5030687;28;20033;-44
2023/04/02 07:53:33;;;;;;;16.17;9.85;;;;;;;7.26;72.43;101900.03;5036387;28;20037;-44
2023/04/02 07:56:00;;;;;;;16.83;10.18;;;;;;;7.22;72.51;101891.47;5033667;28;20760;-44
2023/04/02 07:58:27;;;;;;;16.63;10.07;;;;;;;7.22;73.69;101894.22;5032884;28;20021;-45
2023/04/02 08:00:52;;;;;;;19.38;11.13;;;;;;;7.14;73.55;101903.75;5030516;28;20051;-44
2023/04/02 08:03:18;;;;;;;17.25;10.63;;;;;;;7.13;73.01;101901.25;5035349;28;20037;-44
2023/04/02 08:05:49;;;;;;;17.30;10.90;;;;;;;7.15;72.58;101905.41;5032313;28;20020;-44
2023/04/02 08:08:14;;;;;;;16.67;10.55;;;;;;;7.16;73.75;101917.25;5050219;28;20030;-44
2023/04/02 08:10:40;;;;;;;15.30;10.10;;;;;;;7.08;73.06;101915.78;5050626;28;20485;-44
2023/04/02 08:13:05;;;;;;;16.55;10.27;;;;;;;7.12;72.69;101916.09;5050563;28;20484;-44
2023/04/02 08:15:30;;;;;;;15.73;9.90;;;;;;;7.24;73.96;101922.31;5050343;28;20067;-48
2023/04/02 08:17:56;;;;;;;15.75;9.93;;;;;;;7.31;73.26;101941.38;5049757;28;20690;-46
2023/04/02 08:20:21;;;;;;;16.02;10.20;;;;;;;7.36;72.55;101932.34;5049978;28;20471;-46
2023/04/02 08:22:48;;;;;;;15.60;10.35;;;;;;;7.36;72.15;101935.13;5047642;28;20021;-44
2023/04/02 08:25:14;;;;;;;15.93;10.13;;;;;;;7.30;72.30;101936.97;5046622;28;20723;-44
2023/04/02 08:27:39;;;;;;;16.58;10.43;;;;;;;7.26;72.87;101941.31;5050147;28;20029;-44
2023/04/02 08:30:06;;;;;;;14.48;9.65;;;;;;;7.36;73.58;101948.88;5050140;28;20528;-45
2023/04/02 08:32:32;;;;;;;17.50;10.07;;;;;;;7.32;72.86;101949.38;5049930;28;20037;-44
2023/04/02 08:34:57;;;;;;;17.33;9.93;;;;;;;7.43;74.42;101966.03;5049760;28;20028;-43
2023/04/02 08:37:22;;;;;;;17.73;10.18;;;;;;;7.52;75.64;101970.00;5049780;28;20036;-44
2023/04/02 08:39:48;;;;;;;17.63;9.90;;;;;;;7.61;74.09;101978.59;5049902;28;20032;-44
2023/04/02 08:42:31;;;;;;;17.85;10.20;;;;;;;7.86;75.59;101982.75;5050027;28;20450;-44
2023/04/02 08:45:20;;;;;;;16.42;10.00;;;;;;;7.96;72.98;101986.41;5049970;28;20114;-43
2023/04/02 08:47:47;;;;;;;16.88;9.85;;;;;;;7.95;72.79;101970.97;5050324;28;20067;-44
2023/04/02 08:50:32;;;;;;;16.33;9.80;;;;;;;8.11;73.05;101991.25;5050172;28;20029;-43
2023/04/02 08:53:01;;;;;;;16.08;9.80;;;;;;;8.03;71.29;102004.69;5049862;28;20032;-43
2023/04/02 08:55:36;;;;;;;17.08;9.98;;;;;;;7.97;70.37;102001.06;5049907;28;20569;-44
2023/04/02 08:58:31;;;;;;;16.20;10.00;;;;;;;7.95;71.51;101994.97;5049866;28;20033;-44
2023/04/02 09:01:00;;;;;;;18.77;10.10;;;;;;;7.90;70.27;101986.63;5049851;28;20458;-45
2023/04/02 09:03:44;;;;;;;17.55;10.10;;;;;;;8.08;69.92;102022.09;5049896;28;20029;-44
2023/04/02 09:06:14;;;;;;;16.33;9.95;;;;;;;8.03;69.71;102021.22;5050012;28;20025;-44
2023/04/02 09:08:42;;;;;;;15.43;9.85;;;;;;;7.95;69.81;102025.28;5049912;28;20033;-43
2023/04/02 09:11:20;;;;;;;16.45;9.73;;;;;;;8.06;69.94;102038.06;5044949;28;20037;-44
2023/04/02 09:13:50;;;;;;;16.13;9.80;;;;;;;8.04;68.50;102042.16;5041844;28;20041;-44
2023/04/02 09:16:21;;;;;;;17.38;9.98;;;;;;;8.04;68.98;102045.75;5053504;28;20028;-44
2023/04/02 09:18:51;;;;;;;16.83;10.38;;;;;;;7.93;68.58;102042.06;5047959;28;20391;-43
2023/04/02 09:21:19;;;;;;;16.48;10.07;;;;;;;7.97;69.67;102054.22;5035430;28;20481;-44
2023/04/02 09:23:45;;;;;;;15.43;10.00;;;;;;;7.93;69.86;102055.00;5048866;28;20319;-44
2023/04/02 09:26:26;;;;;;;17.90;10.05;;;;;;;7.89;69.47;102046.41;5044604;28;20060;-45
2023/04/02 09:28:59;;;;;;;17.02;9.80;;;;;;;7.86;70.47;102065.41;5047279;28;20025;-42
2023/04/02 09:31:33;;;;;;;16.17;10.10;;;;;;;7.60;68.85;102045.81;5052069;28;20028;-45
2023/04/02 09:33:58;;;;;;;15.88;9.88;;;;;;;7.80;69.40;102075.53;5051793;28;20474;-42
2023/04/02 09:36:34;;;;;;;16.17;10.13;;;;;;;7.82;70.38;102081.63;5053276;28;20103;-43
2023/04/02 09:39:18;;;;;;;17.02;9.85;;;;;;;7.80;69.09;102083.78;5053096;28;20029;-42
2023/04/02 09:41:44;;;;;;;15.57;9.32;;;;;;;7.80;69.88;102083.78;5053185;28;20091;-43
2023/04/02 09:44:24;;;;;;;14.10;9.40;;;;;;;7.82;70.43;102087.13;5052731;28;20489;-43
2023/04/02 09:47:05;;;;;;;16.73;9.90;;;;;;;7.82;69.60;102103.66;5052400;28;20376;-43
2023/04/02 09:49:36;;;;;;;16.30;10.00;;;;;;;7.72;69.77;102100.78;5052496;28;20040;-42
2023/04/02 09:52:18;;;;;;;16.92;9.75;;;;;;;7.80;70.90;102103.88;5045762;28;20033;-45
2023/04/02 09:54:44;;;;;;;16.35;9.80;;;;;;;7.80;70.01;102108.59;5043763;28;20033;-42
2023/04/02 09:57:23;;;;;;;15.38;9.98;;;;;;;7.92;70.32;102109.28;5041137;28;20028;-43
2023/04/02 10:00:27;;;;;;;14.70;9.73;;;;;;;7.93;71.89;102124.75;5041584;28;20152;-43
2023/04/02 10:03:01;;;;;;;;;;;;;;;8.09;71.70;102122.97;5044640;28;20037;-42
2023/04/02 10:05:26;;;;;;;16.85;9.95;;;;;;;8.02;73.48;102130.63;5042657;28;19917;-44
2023/04/02 10:07:54;;;;;;;17.20;10.07;;;;;;;7.97;71.00;102133.31;5041889;28;20033;-43
2023/04/02 10:10:37;;;;;;;14.63;9.38;;;;;;;7.89;71.63;102142.84;5032915;28;20056;-42
2023/04/02 10:13:27;;;;;;;14.55;9.75;;;;;;;7.94;72.42;102136.56;5032882;28;20527;-42
2023/04/02 10:16:00;;;;;;;22.08;11.35;;;;;;;8.05;72.25;102151.31;5064144;28;20030;-41
2023/04/02 10:18:40;;;;;;;19.95;10.75;;;;;;;7.96;71.39;102145.44;5070864;28;20036;-43
2023/04/02 10:21:09;;;;;;;25.88;11.48;;;;;;;7.95;74.01;102152.84;5072295;28;20129;-42
2023/04/02 10:23:35;;;;;;;34.25;13.88;;;;;;;8.23;78.99;102150.16;5072185;28;20052;-42
2023/04/02 10:26:32;;;;;;;21.00;10.95;;;;;;;8.15;73.34;102159.69;5072599;28;20077;-42
2023/04/02 10:29:13;;;;;;;22.30;12.73;;;;;;;8.08;71.35;102150.81;5065201;28;20040;-41
2023/04/02 10:31:57;;;;;;;22.38;12.75;;;;;;;8.18;71.73;102164.72;5054342;28;20029;-42
2023/04/02 10:34:32;;;;;;;18.50;10.57;;;;;;;8.09;70.11;102150.53;5072287;28;20029;-41
2023/04/02 10:37:23;;;;;;;17.40;10.20;;;;;;;8.20;71.34;102162.53;5072326;28;20369;-42
2023/04/02 10:39:57;;;;;;;20.45;11.35;;;;;;;8.24;69.73;102166.44;5024902;28;20044;-42
2023/04/02 10:42:36;;;;;;;18.20;10.73;;;;;;;8.32;68.55;102154.13;5065761;28;20064;-43
2023/04/02 10:45:17;;;;;;;16.83;10.40;;;;;;;8.50;67.74;102175.00;5052469;28;20040;-42
2023/04/02 10:47:59;;;;;;;15.88;10.90;;;;;;;8.53;68.95;102180.00;5039971;28;20029;-43
2023/04/02 10:50:31;;;;;;;18.10;10.32;;;;;;;8.49;67.98;102178.88;5032022;28;20042;-43
2023/04/02 10:53:06;;;;;;;16.85;10.40;;;;;;;8.56;67.89;102175.91;5046275;28;20075;-42
2023/04/02 10:55:39;;;;;;;16.17;10.40;;;;;;;8.63;67.21;102195.00;5051700;28;20043;-43
2023/04/02 10:58:11;;;;;;;14.70;9.88;;;;;;;8.84;67.98;102190.53;5051755;28;20432;-43
2023/04/02 11:00:41;;;;;;;17.80;9.98;;;;;;;8.80;66.62;102192.16;5051574;28;20120;-43
2023/04/02 11:03:13;;;;;;;16.40;9.98;;;;;;;8.79;66.73;102184.97;5051334;28;20029;-43
2023/04/02 11:05:46;;;;;;;17.65;10.32;;;;;;;8.95;66.62;102202.50;5051492;28;20040;-42
2023/04/02 11:08:20;;;;;;;17.00;10.48;;;;;;;8.92;65.50;102186.47;5033527;28;20040;-44
2023/04/02 11:11:08;;;;;;;17.40;9.95;;;;;;;8.90;66.42;102193.06;5050305;28;20043;-42
2023/04/02 11:13:52;;;;;;;16.20;9.68;;;;;;;9.07;66.33;102207.84;5049401;28;20037;-44
2023/04/02 11:16:18;;;;;;;;;;;;;;;9.19;67.91;102203.00;5051846;28;20470;-44
2023/04/02 11:19:09;;;;;;;13.43;9.38;;;;;;;9.20;66.01;102207.44;5049621;28;19917;-43
2023/04/02 11:21:34;;;;;;;15.05;9.40;;;;;;;9.22;64.54;102224.53;5050943;28;20043;-43
2023/04/02 11:24:01;;;;;;;15.55;10.10;;;;;;;9.30;63.93;102224.09;5032816;28;20061;-43
2023/04/02 11:26:37;;;;;;;14.88;9.85;;;;;;;9.29;64.44;102219.66;5042288;28;20470;-43
2023/04/02 11:29:23;;;;;;;17.02;10.25;;;;;;;9.35;65.82;102237.09;5041643;28;20033;-44
2023/04/02 11:32:22;;;;;;;16.27;10.45;;;;;;;9.24;65.62;102230.63;5041384;28;20053;-42
2023/04/02 11:34:48;;;;;;;17.23;10.30;;;;;;;9.17;65.01;102247.41;5012514;28;20029;-43
2023/04/02 11:37:40;;;;;;;19.02;12.15;;;;;;;9.16;65.07;102245.75;5030719;28;20037;-42
2023/04/02 11:40:11;;;;;;;16.33;10.50;;;;;;;9.17;64.87;102252.94;5030983;28;20040;-43
2023/04/02 11:42:41;;;;;;;17.40;10.30;;;;;;;9.14;64.10;102252.63;5030697;28;20061;-42
2023/04/02 11:45:19;;;;;;;17.02;10.40;;;;;;;9.22;65.81;102260.44;5030115;28;20024;-42
2023/04/02 11:48:00;;;;;;;16.13;10.13;;;;;;;9.30;65.40;102262.75;5029890;28;20443;-42